createdAt,value
2017-05-01T00:00:03.447Z,75.78
2017-05-01T00:00:07.642Z,75.81
2017-05-01T00:00:11.959Z,75.78
2017-05-01T00:00:16.286Z,75.78
2017-05-01T00:00:20.721Z,75.81
2017-05-01T00:00:24.906Z,75.96
2017-05-01T00:00:29.332Z,75.68
2017-05-01T00:00:33.760Z,75.78
2017-05-01T00:00:38.100Z,76.01
2017-05-01T00:00:42.534Z,76.1
2017-05-01T00:00:46.724Z,76.25
2017-05-01T00:00:51.155Z,76.06
2017-05-01T00:00:55.625Z,75.91
2017-05-01T00:01:00.047Z,75.81
2017-05-01T00:01:04.468Z,76.06
2017-05-01T00:01:08.787Z,76.1
2017-05-01T00:01:13.255Z,76.16
2017-05-01T00:01:17.564Z,76.48
2017-05-01T00:01:21.991Z,76.06
2017-05-01T00:01:26.417Z,76.76
2017-05-01T00:01:30.850Z,76.01
2017-05-01T00:01:35.273Z,76.39
2017-05-01T00:01:39.699Z,76.57
2017-05-01T00:01:44.130Z,75.96
2017-05-01T00:01:48.556Z,76.67
2017-05-01T00:01:52.982Z,76.57
2017-05-01T00:01:57.410Z,76.29
2017-05-01T00:02:01.751Z,76.54
2017-05-01T00:02:06.059Z,76.57
2017-05-01T00:02:10.365Z,76.67
2017-05-01T00:02:14.558Z,76.63
2017-05-01T00:02:18.992Z,76.67
2017-05-01T00:02:23.418Z,76.67
2017-05-01T00:02:27.844Z,76.57
2017-05-01T00:02:32.271Z,76.57
2017-05-01T00:02:36.701Z,76.57
2017-05-01T00:02:41.129Z,76.44
2017-05-01T00:02:45.559Z,76.67
2017-05-01T00:02:49.977Z,76.63
2017-05-01T00:02:54.413Z,76.57
2017-05-01T00:02:58.845Z,76.57
2017-05-01T00:03:03.167Z,76.44
2017-05-01T00:03:07.611Z,76.73
2017-05-01T00:03:11.936Z,76.67
2017-05-01T00:03:16.137Z,76.44
2017-05-01T00:03:20.562Z,76.48
2017-05-01T00:03:24.998Z,76.76
2017-05-01T00:03:29.435Z,76.57
2017-05-01T00:03:33.877Z,76.76
2017-05-01T00:03:38.197Z,76.73
2017-05-01T00:03:42.509Z,76.54
2017-05-01T00:03:46.988Z,76.76
2017-05-01T00:03:51.304Z,76.57
2017-05-01T00:03:55.744Z,76.76
2017-05-01T00:04:00.173Z,76.96
2017-05-01T00:04:04.488Z,76.54
2017-05-01T00:04:08.796Z,76.96
2017-05-01T00:04:12.997Z,76.92
2017-05-01T00:04:17.431Z,76.35
2017-05-01T00:04:21.862Z,76.29
2017-05-01T00:04:26.196Z,76.35
2017-05-01T00:04:30.270Z,76.35
2017-05-01T00:04:34.703Z,76.44
2017-05-01T00:04:39.134Z,76.82
2017-05-01T00:04:43.566Z,76.67
2017-05-01T00:04:48.000Z,76.73
2017-05-01T00:04:52.433Z,76.73
2017-05-01T00:04:56.895Z,76.76
2017-05-01T00:05:01.323Z,76.73
2017-05-01T00:05:05.517Z,76.63
2017-05-01T00:05:09.949Z,76.63
2017-05-01T00:05:14.378Z,76.73
2017-05-01T00:05:18.802Z,76.67
2017-05-01T00:05:23.226Z,76.76
2017-05-01T00:05:27.646Z,76.63
2017-05-01T00:05:31.846Z,76.73
2017-05-01T00:05:36.282Z,76.67
2017-05-01T00:05:40.587Z,76.73
2017-05-01T00:05:45.009Z,76.54
2017-05-01T00:05:49.443Z,76.63
2017-05-01T00:05:53.866Z,76.63
2017-05-01T00:05:58.300Z,76.63
2017-05-01T00:06:02.742Z,76.63
2017-05-01T00:06:06.943Z,76.63
2017-05-01T00:06:11.247Z,76.35
2017-05-01T00:06:15.440Z,76.35
2017-05-01T00:06:19.869Z,76.63
2017-05-01T00:06:24.070Z,76.48
2017-05-01T00:06:28.496Z,76.63
2017-05-01T00:06:32.919Z,76.35
2017-05-01T00:06:37.254Z,76.54
2017-05-01T00:06:41.680Z,76.35
2017-05-01T00:06:46.110Z,76.73
2017-05-01T00:06:50.539Z,76.73
2017-05-01T00:06:54.967Z,76.54
2017-05-01T00:06:59.390Z,76.73
2017-05-01T00:07:03.914Z,76.73
2017-05-01T00:07:08.221Z,76.63
2017-05-01T00:07:12.655Z,76.73
2017-05-01T00:07:16.658Z,76.63
2017-05-01T00:07:21.084Z,76.73
2017-05-01T00:07:25.397Z,76.63
2017-05-01T00:07:29.830Z,76.63
2017-05-01T00:07:34.259Z,76.44
2017-05-01T00:07:38.572Z,76.63
2017-05-01T00:07:43.004Z,76.63
2017-05-01T00:07:47.447Z,76.73
2017-05-01T00:07:51.879Z,76.73
2017-05-01T00:07:56.297Z,76.63
2017-05-01T00:08:00.737Z,76.63
2017-05-01T00:08:05.211Z,76.63
2017-05-01T00:08:09.405Z,76.82
2017-05-01T00:08:13.839Z,76.73
2017-05-01T00:08:18.037Z,76.73
2017-05-01T00:08:22.481Z,76.73
2017-05-01T00:08:26.911Z,76.73
2017-05-01T00:08:31.348Z,76.63
2017-05-01T00:08:35.790Z,76.73
2017-05-01T00:08:40.223Z,76.63
2017-05-01T00:08:44.655Z,76.63
2017-05-01T00:08:49.098Z,76.73
2017-05-01T00:08:53.546Z,76.54
2017-05-01T00:08:57.992Z,76.44
2017-05-01T00:09:02.415Z,76.82
2017-05-01T00:09:06.845Z,76.63
2017-05-01T00:09:11.272Z,76.73
2017-05-01T00:09:15.474Z,76.54
2017-05-01T00:09:19.899Z,76.44
2017-05-01T00:09:24.320Z,76.54
2017-05-01T00:09:28.761Z,76.35
2017-05-01T00:09:33.234Z,76.35
2017-05-01T00:09:37.664Z,76.92
2017-05-01T00:09:42.098Z,76.44
2017-05-01T00:09:46.526Z,77.01
2017-05-01T00:09:50.966Z,76.82
2017-05-01T00:09:55.402Z,76.73
2017-05-01T00:09:59.712Z,77.01
2017-05-01T00:10:04.141Z,77.2
2017-05-01T00:10:08.454Z,77.11
2017-05-01T00:10:12.882Z,77.01
2017-05-01T00:10:17.311Z,77.01
2017-05-01T00:10:21.623Z,77.2
2017-05-01T00:10:26.079Z,77.11
2017-05-01T00:10:30.511Z,77.01
2017-05-01T00:10:34.931Z,77.01
2017-05-01T00:10:39.362Z,77.01
2017-05-01T00:10:43.715Z,76.92
2017-05-01T00:10:48.142Z,77.2
2017-05-01T00:10:52.449Z,77.01
2017-05-01T00:10:56.882Z,77.2
2017-05-01T00:11:00.999Z,77.2
2017-05-01T00:11:05.525Z,77.2
2017-05-01T00:11:09.829Z,77.11
2017-05-01T00:11:14.142Z,77.01
2017-05-01T00:11:18.603Z,77.2
2017-05-01T00:11:23.029Z,77.11
2017-05-01T00:11:27.336Z,77.01
2017-05-01T00:11:31.650Z,77.01
2017-05-01T00:11:36.082Z,77.11
2017-05-01T00:11:40.390Z,77.11
2017-05-01T00:11:44.696Z,77.01
2017-05-01T00:11:49.126Z,77.01
2017-05-01T00:11:53.564Z,77.11
2017-05-01T00:11:57.879Z,77.01
2017-05-01T00:12:02.301Z,76.92
2017-05-01T00:12:06.727Z,77.01
2017-05-01T00:12:10.927Z,76.92
2017-05-01T00:12:15.386Z,76.92
2017-05-01T00:12:19.816Z,76.92
2017-05-01T00:12:24.240Z,77.11
2017-05-01T00:12:28.560Z,76.92
2017-05-01T00:12:33.019Z,76.92
2017-05-01T00:12:37.332Z,76.92
2017-05-01T00:12:41.638Z,77.01
2017-05-01T00:12:46.068Z,76.92
2017-05-01T00:12:50.554Z,76.92
2017-05-01T00:12:54.998Z,76.92
2017-05-01T00:12:59.317Z,76.92
2017-05-01T00:13:03.752Z,76.82
2017-05-01T00:13:08.217Z,76.82
2017-05-01T00:13:12.306Z,76.92
2017-05-01T00:13:16.621Z,77.11
2017-05-01T00:13:20.934Z,77.11
2017-05-01T00:13:25.410Z,77.2
2017-05-01T00:13:29.721Z,77.01
2017-05-01T00:13:34.148Z,77.2
2017-05-01T00:13:38.576Z,77.11
2017-05-01T00:13:43.009Z,77.11
2017-05-01T00:13:47.436Z,77.58
2017-05-01T00:13:51.860Z,77.58
2017-05-01T00:13:56.299Z,77.49
2017-05-01T00:14:00.734Z,77.39
2017-05-01T00:14:05.466Z,77.3
2017-05-01T00:14:09.775Z,77.3
2017-05-01T00:14:13.987Z,77.39
2017-05-01T00:14:18.466Z,77.58
2017-05-01T00:14:22.896Z,77.58
2017-05-01T00:14:27.328Z,77.68
2017-05-01T00:14:31.778Z,77.58
2017-05-01T00:14:36.209Z,77.58
2017-05-01T00:14:40.637Z,77.58
2017-05-01T00:14:45.059Z,77.68
2017-05-01T00:14:49.493Z,77.58
2017-05-01T00:14:53.923Z,77.58
2017-05-01T00:14:58.239Z,77.68
2017-05-01T00:15:02.668Z,77.77
2017-05-01T00:15:07.017Z,77.68
2017-05-01T00:15:11.325Z,77.58
2017-05-01T00:15:15.518Z,77.77
2017-05-01T00:15:19.947Z,77.58
2017-05-01T00:15:24.379Z,77.68
2017-05-01T00:15:28.801Z,77.77
2017-05-01T00:15:33.226Z,77.49
2017-05-01T00:15:37.655Z,77.68
2017-05-01T00:15:42.107Z,77.49
2017-05-01T00:15:46.533Z,77.49
2017-05-01T00:15:50.845Z,77.49
2017-05-01T00:15:55.274Z,77.49
2017-05-01T00:15:59.709Z,77.49
2017-05-01T00:16:04.387Z,77.49
2017-05-01T00:16:08.457Z,77.3
2017-05-01T00:16:12.889Z,77.49
2017-05-01T00:16:17.322Z,77.49
2017-05-01T00:16:21.753Z,77.68
2017-05-01T00:16:26.181Z,77.49
2017-05-01T00:16:30.492Z,77.68
2017-05-01T00:16:34.962Z,77.49
2017-05-01T00:16:39.400Z,77.58
2017-05-01T00:16:43.712Z,77.58
2017-05-01T00:16:47.904Z,77.49
2017-05-01T00:16:52.335Z,77.49
2017-05-01T00:16:56.760Z,77.58
2017-05-01T00:17:01.187Z,77.3
2017-05-01T00:17:05.494Z,77.58
2017-05-01T00:17:09.805Z,77.58
2017-05-01T00:17:14.114Z,77.58
2017-05-01T00:17:18.551Z,77.3
2017-05-01T00:17:23.027Z,77.68
2017-05-01T00:17:27.453Z,77.68
2017-05-01T00:17:31.887Z,77.49
2017-05-01T00:17:36.322Z,77.68
2017-05-01T00:17:40.650Z,77.49
2017-05-01T00:17:44.838Z,77.49
2017-05-01T00:17:49.156Z,77.3
2017-05-01T00:17:53.590Z,77.3
2017-05-01T00:17:58.021Z,77.3
2017-05-01T00:18:02.750Z,77.2
2017-05-01T00:18:07.175Z,77.3
2017-05-01T00:18:11.488Z,77.58
2017-05-01T00:18:15.801Z,77.68
2017-05-01T00:18:20.122Z,77.3
2017-05-01T00:18:24.545Z,77.3
2017-05-01T00:18:28.980Z,77.68
2017-05-01T00:18:33.414Z,77.3
2017-05-01T00:18:37.853Z,77.49
2017-05-01T00:18:41.946Z,77.49
2017-05-01T00:18:46.383Z,77.77
2017-05-01T00:18:50.706Z,77.39
2017-05-01T00:18:55.138Z,77.49
2017-05-01T00:18:59.582Z,77.49
2017-05-01T00:19:04.066Z,77.68
2017-05-01T00:19:08.501Z,77.49
2017-05-01T00:19:12.802Z,77.49
2017-05-01T00:19:17.121Z,77.49
2017-05-01T00:19:21.570Z,77.68
2017-05-01T00:19:26.004Z,77.68
2017-05-01T00:19:30.426Z,77.87
2017-05-01T00:19:34.860Z,77.58
2017-05-01T00:19:39.287Z,77.77
2017-05-01T00:19:43.713Z,77.58
2017-05-01T00:19:48.137Z,77.68
2017-05-01T00:19:52.564Z,77.68
2017-05-01T00:19:56.884Z,77.77
2017-05-01T00:20:01.315Z,77.68
2017-05-01T00:20:05.628Z,77.68
2017-05-01T00:20:10.056Z,77.3
2017-05-01T00:20:14.139Z,77.58
2017-05-01T00:20:18.566Z,77.3
2017-05-01T00:20:22.991Z,77.3
2017-05-01T00:20:27.421Z,77.2
2017-05-01T00:20:31.856Z,77.3
2017-05-01T00:20:36.281Z,77.3
2017-05-01T00:20:40.478Z,77.3
2017-05-01T00:20:44.916Z,77.58
2017-05-01T00:20:49.229Z,77.3
2017-05-01T00:20:53.660Z,77.3
2017-05-01T00:20:58.084Z,77.3
2017-05-01T00:21:02.615Z,77.39
2017-05-01T00:21:07.048Z,77.3
2017-05-01T00:21:11.358Z,77.3
2017-05-01T00:21:15.788Z,77.3
2017-05-01T00:21:20.222Z,77.49
2017-05-01T00:21:24.658Z,77.39
2017-05-01T00:21:29.078Z,77.49
2017-05-01T00:21:33.267Z,77.49
2017-05-01T00:21:37.693Z,77.3
2017-05-01T00:21:41.882Z,77.3
2017-05-01T00:21:46.314Z,77.3
2017-05-01T00:21:50.741Z,77.3
2017-05-01T00:21:55.169Z,77.3
2017-05-01T00:21:59.595Z,77.58
2017-05-01T00:22:03.905Z,77.68
2017-05-01T00:22:08.336Z,77.68
2017-05-01T00:22:12.772Z,77.68
2017-05-01T00:22:16.846Z,77.68
2017-05-01T00:22:21.372Z,77.68
2017-05-01T00:22:25.817Z,77.68
2017-05-01T00:22:30.252Z,77.68
2017-05-01T00:22:34.684Z,77.49
2017-05-01T00:22:39.103Z,77.68
2017-05-01T00:22:43.527Z,77.49
2017-05-01T00:22:47.963Z,77.49
2017-05-01T00:22:52.401Z,77.77
2017-05-01T00:22:56.838Z,77.39
2017-05-01T00:23:01.263Z,77.68
2017-05-01T00:23:05.702Z,77.39
2017-05-01T00:23:10.139Z,77.49
2017-05-01T00:23:14.339Z,77.68
2017-05-01T00:23:18.702Z,77.49
2017-05-01T00:23:23.140Z,77.58
2017-05-01T00:23:27.576Z,77.68
2017-05-01T00:23:32.017Z,77.77
2017-05-01T00:23:36.453Z,77.49
2017-05-01T00:23:40.878Z,77.39
2017-05-01T00:23:45.194Z,77.49
2017-05-01T00:23:49.636Z,77.49
2017-05-01T00:23:54.125Z,77.2
2017-05-01T00:23:58.565Z,77.77
2017-05-01T00:24:02.990Z,77.58
2017-05-01T00:24:07.429Z,77.97
2017-05-01T00:24:11.786Z,77.77
2017-05-01T00:24:16.094Z,77.77
2017-05-01T00:24:20.527Z,77.77
2017-05-01T00:24:24.716Z,77.58
2017-05-01T00:24:29.165Z,77.77
2017-05-01T00:24:33.588Z,77.97
2017-05-01T00:24:38.017Z,77.87
2017-05-01T00:24:42.449Z,77.77
2017-05-01T00:24:46.883Z,77.87
2017-05-01T00:24:51.311Z,78.06
2017-05-01T00:24:55.746Z,77.97
2017-05-01T00:25:00.182Z,77.77
2017-05-01T00:25:04.848Z,77.97
2017-05-01T00:25:09.277Z,78.34
2017-05-01T00:25:13.708Z,78.25
2017-05-01T00:25:18.018Z,78.16
2017-05-01T00:25:22.452Z,78.06
2017-05-01T00:25:26.878Z,78.34
2017-05-01T00:25:31.300Z,78.06
2017-05-01T00:25:35.727Z,78.34
2017-05-01T00:25:40.196Z,78.25
2017-05-01T00:25:44.621Z,77.97
2017-05-01T00:25:49.049Z,78.16
2017-05-01T00:25:53.485Z,78.25
2017-05-01T00:25:57.913Z,78.25
2017-05-01T00:26:02.334Z,78.16
2017-05-01T00:26:06.788Z,77.97
2017-05-01T00:26:10.982Z,77.77
2017-05-01T00:26:15.179Z,77.87
2017-05-01T00:26:19.617Z,77.97
2017-05-01T00:26:23.929Z,77.87
2017-05-01T00:26:28.355Z,78.06
2017-05-01T00:26:32.793Z,77.87
2017-05-01T00:26:37.225Z,78.16
2017-05-01T00:26:41.659Z,77.87
2017-05-01T00:26:46.089Z,78.44
2017-05-01T00:26:50.518Z,78.16
2017-05-01T00:26:54.953Z,78.34
2017-05-01T00:26:59.262Z,78.34
2017-05-01T00:27:03.841Z,78.34
2017-05-01T00:27:08.271Z,78.53
2017-05-01T00:27:12.589Z,78.44
2017-05-01T00:27:16.786Z,78.53
2017-05-01T00:27:21.217Z,78.63
2017-05-01T00:27:25.534Z,78.53
2017-05-01T00:27:29.967Z,78.53
2017-05-01T00:27:34.390Z,78.63
2017-05-01T00:27:38.704Z,78.53
2017-05-01T00:27:43.134Z,78.34
2017-05-01T00:27:47.449Z,78.72
2017-05-01T00:27:51.880Z,78.72
2017-05-01T00:27:56.313Z,78.34
2017-05-01T00:28:00.748Z,78.82
2017-05-01T00:28:04.966Z,78.72
2017-05-01T00:28:09.170Z,78.82
2017-05-01T00:28:13.602Z,78.44
2017-05-01T00:28:17.924Z,78.72
2017-05-01T00:28:22.122Z,78.63
2017-05-01T00:28:26.556Z,78.82
2017-05-01T00:28:30.986Z,78.91
2017-05-01T00:28:35.315Z,78.63
2017-05-01T00:28:39.750Z,78.63
2017-05-01T00:28:44.180Z,78.82
2017-05-01T00:28:48.614Z,78.72
2017-05-01T00:28:53.044Z,78.72
2017-05-01T00:28:57.483Z,78.63
2017-05-01T00:29:02.061Z,78.63
2017-05-01T00:29:06.369Z,78.63
2017-05-01T00:29:10.797Z,78.53
2017-05-01T00:29:15.122Z,78.63
2017-05-01T00:29:19.579Z,78.53
2017-05-01T00:29:23.890Z,78.82
2017-05-01T00:29:28.329Z,78.82
2017-05-01T00:29:32.758Z,78.63
2017-05-01T00:29:37.190Z,78.63
2017-05-01T00:29:41.387Z,78.82
2017-05-01T00:29:45.819Z,78.82
2017-05-01T00:29:50.249Z,78.63
2017-05-01T00:29:54.683Z,78.44
2017-05-01T00:29:59.114Z,78.44
2017-05-01T00:30:03.542Z,78.53
2017-05-01T00:30:07.742Z,78.63
2017-05-01T00:30:11.931Z,78.63
2017-05-01T00:30:16.239Z,78.53
2017-05-01T00:30:20.662Z,78.53
2017-05-01T00:30:24.972Z,78.63
2017-05-01T00:30:29.399Z,78.53
2017-05-01T00:30:33.824Z,78.44
2017-05-01T00:30:38.138Z,78.53
2017-05-01T00:30:42.576Z,78.25
2017-05-01T00:30:47.000Z,78.25
2017-05-01T00:30:51.316Z,78.25
2017-05-01T00:30:55.510Z,78.34
2017-05-01T00:30:59.951Z,78.44
2017-05-01T00:31:04.473Z,78.25
2017-05-01T00:31:08.777Z,78.16
2017-05-01T00:31:13.206Z,78.25
2017-05-01T00:31:17.438Z,78.25
2017-05-01T00:31:21.877Z,78.63
2017-05-01T00:31:26.071Z,78.63
2017-05-01T00:31:30.504Z,78.16
2017-05-01T00:31:34.931Z,78.25
2017-05-01T00:31:39.236Z,78.16
2017-05-01T00:31:43.672Z,78.25
2017-05-01T00:31:48.104Z,78.25
2017-05-01T00:31:52.531Z,78.53
2017-05-01T00:31:56.846Z,78.53
2017-05-01T00:32:01.166Z,78.34
2017-05-01T00:32:05.483Z,78.16
2017-05-01T00:32:09.910Z,77.87
2017-05-01T00:32:14.217Z,78.16
2017-05-01T00:32:18.530Z,77.87
2017-05-01T00:32:23.002Z,77.87
2017-05-01T00:32:27.307Z,78.16
2017-05-01T00:32:31.740Z,78.16
2017-05-01T00:32:36.173Z,78.16
2017-05-01T00:32:40.372Z,77.87
2017-05-01T00:32:44.815Z,77.87
2017-05-01T00:32:49.134Z,78.16
2017-05-01T00:32:53.570Z,77.87
2017-05-01T00:32:57.773Z,77.87
2017-05-01T00:33:02.405Z,78.06
2017-05-01T00:33:06.839Z,77.87
2017-05-01T00:33:11.267Z,77.77
2017-05-01T00:33:15.480Z,77.87
2017-05-01T00:33:19.913Z,77.87
2017-05-01T00:33:24.344Z,77.97
2017-05-01T00:33:28.778Z,77.97
2017-05-01T00:33:33.210Z,77.87
2017-05-01T00:33:37.651Z,77.97
2017-05-01T00:33:42.116Z,77.97
2017-05-01T00:33:46.538Z,78.06
2017-05-01T00:33:50.620Z,78.16
2017-05-01T00:33:55.060Z,78.16
2017-05-01T00:33:59.499Z,78.06
2017-05-01T00:34:04.225Z,77.87
2017-05-01T00:34:08.422Z,77.87
2017-05-01T00:34:12.742Z,78.44
2017-05-01T00:34:17.179Z,77.87
2017-05-01T00:34:21.605Z,77.87
2017-05-01T00:34:26.040Z,77.97
2017-05-01T00:34:30.478Z,78.06
2017-05-01T00:34:34.906Z,77.97
2017-05-01T00:34:39.333Z,78.16
2017-05-01T00:34:43.763Z,78.16
2017-05-01T00:34:48.200Z,77.87
2017-05-01T00:34:52.621Z,78.06
2017-05-01T00:34:57.061Z,78.06
2017-05-01T00:35:01.383Z,77.97
2017-05-01T00:35:05.696Z,78.06
2017-05-01T00:35:10.155Z,78.16
2017-05-01T00:35:14.340Z,77.97
2017-05-01T00:35:18.782Z,78.16
2017-05-01T00:35:23.215Z,77.87
2017-05-01T00:35:27.649Z,77.87
2017-05-01T00:35:31.852Z,78.44
2017-05-01T00:35:36.289Z,77.97
2017-05-01T00:35:40.713Z,77.97
2017-05-01T00:35:45.022Z,77.97
2017-05-01T00:35:49.460Z,78.34
2017-05-01T00:35:53.889Z,78.44
2017-05-01T00:35:58.204Z,77.97
2017-05-01T00:36:02.631Z,77.87
2017-05-01T00:36:06.992Z,77.87
2017-05-01T00:36:11.417Z,77.97
2017-05-01T00:36:15.608Z,78.16
2017-05-01T00:36:20.046Z,77.87
2017-05-01T00:36:24.475Z,77.87
2017-05-01T00:36:28.911Z,78.16
2017-05-01T00:36:33.341Z,78.06
2017-05-01T00:36:37.534Z,77.97
2017-05-01T00:36:41.964Z,78.06
2017-05-01T00:36:46.390Z,78.44
2017-05-01T00:36:50.820Z,78.44
2017-05-01T00:36:55.251Z,78.53
2017-05-01T00:36:59.682Z,78.44
2017-05-01T00:37:04.092Z,78.53
2017-05-01T00:37:08.406Z,78.44
2017-05-01T00:37:12.715Z,78.25
2017-05-01T00:37:17.156Z,78.25
2017-05-01T00:37:21.580Z,78.34
2017-05-01T00:37:26.061Z,78.25
2017-05-01T00:37:30.501Z,78.25
2017-05-01T00:37:34.933Z,78.25
2017-05-01T00:37:39.131Z,78.34
2017-05-01T00:37:43.569Z,78.34
2017-05-01T00:37:48.009Z,78.25
2017-05-01T00:37:52.320Z,78.25
2017-05-01T00:37:56.752Z,78.44
2017-05-01T00:38:01.174Z,78.16
2017-05-01T00:38:05.490Z,77.97
2017-05-01T00:38:09.800Z,77.97
2017-05-01T00:38:14.007Z,77.97
2017-05-01T00:38:18.469Z,77.97
2017-05-01T00:38:22.898Z,78.06
2017-05-01T00:38:27.321Z,77.77
2017-05-01T00:38:31.536Z,77.97
2017-05-01T00:38:36.022Z,77.87
2017-05-01T00:38:40.328Z,77.97
2017-05-01T00:38:44.643Z,77.87
2017-05-01T00:38:49.083Z,78.06
2017-05-01T00:38:53.511Z,78.06
2017-05-01T00:38:57.950Z,78.06
2017-05-01T00:39:02.640Z,77.97
2017-05-01T00:39:07.077Z,77.97
2017-05-01T00:39:11.397Z,77.87
2017-05-01T00:39:15.715Z,77.97
2017-05-01T00:39:20.186Z,77.97
2017-05-01T00:39:24.612Z,77.87
2017-05-01T00:39:29.044Z,77.97
2017-05-01T00:39:33.233Z,77.97
2017-05-01T00:39:37.547Z,77.87
2017-05-01T00:39:42.027Z,78.06
2017-05-01T00:39:46.454Z,78.16
2017-05-01T00:39:50.881Z,78.06
2017-05-01T00:39:55.321Z,78.06
2017-05-01T00:39:59.768Z,78.16
2017-05-01T00:40:04.326Z,78.34
2017-05-01T00:40:08.632Z,78.34
2017-05-01T00:40:12.944Z,78.25
2017-05-01T00:40:17.255Z,78.25
2017-05-01T00:40:21.559Z,78.34
2017-05-01T00:40:25.984Z,78.25
2017-05-01T00:40:30.411Z,78.16
2017-05-01T00:40:34.840Z,78.16
2017-05-01T00:40:39.149Z,78.06
2017-05-01T00:40:43.457Z,78.16
2017-05-01T00:40:47.892Z,78.34
2017-05-01T00:40:52.320Z,78.25
2017-05-01T00:40:56.748Z,78.16
2017-05-01T00:41:01.179Z,78.25
2017-05-01T00:41:05.478Z,78.25
2017-05-01T00:41:09.798Z,78.34
2017-05-01T00:41:14.231Z,78.06
2017-05-01T00:41:18.660Z,78.25
2017-05-01T00:41:23.082Z,78.25
2017-05-01T00:41:27.276Z,78.06
2017-05-01T00:41:31.700Z,78.06
2017-05-01T00:41:36.007Z,78.34
2017-05-01T00:41:40.438Z,78.25
2017-05-01T00:41:44.870Z,78.25
2017-05-01T00:41:49.176Z,78.16
2017-05-01T00:41:53.602Z,78.16
2017-05-01T00:41:58.029Z,78.34
2017-05-01T00:42:02.456Z,78.16
2017-05-01T00:42:06.884Z,78.34
2017-05-01T00:42:11.311Z,78.06
2017-05-01T00:42:15.633Z,78.34
2017-05-01T00:42:20.075Z,78.25
2017-05-01T00:42:24.382Z,78.34
2017-05-01T00:42:28.700Z,78.25
2017-05-01T00:42:33.127Z,78.16
2017-05-01T00:42:37.456Z,77.87
2017-05-01T00:42:41.881Z,77.97
2017-05-01T00:42:46.198Z,77.97
2017-05-01T00:42:50.631Z,78.16
2017-05-01T00:42:54.951Z,78.25
2017-05-01T00:42:59.266Z,78.34
2017-05-01T00:43:04.052Z,78.34
2017-05-01T00:43:08.476Z,78.34
2017-05-01T00:43:12.799Z,78.44
2017-05-01T00:43:17.123Z,78.63
2017-05-01T00:43:21.438Z,78.72
2017-05-01T00:43:25.869Z,78.72
2017-05-01T00:43:30.299Z,78.34
2017-05-01T00:43:34.735Z,78.34
2017-05-01T00:43:39.041Z,78.82
2017-05-01T00:43:43.465Z,78.63
2017-05-01T00:43:47.893Z,78.72
2017-05-01T00:43:52.328Z,78.63
2017-05-01T00:43:56.794Z,78.44
2017-05-01T00:44:01.123Z,78.72
2017-05-01T00:44:05.859Z,78.44
2017-05-01T00:44:10.084Z,78.34
2017-05-01T00:44:14.282Z,78.34
2017-05-01T00:44:18.722Z,78.25
2017-05-01T00:44:23.032Z,78.53
2017-05-01T00:44:27.514Z,78.53
2017-05-01T00:44:31.947Z,78.34
2017-05-01T00:44:36.253Z,78.34
2017-05-01T00:44:40.689Z,78.34
2017-05-01T00:44:45.003Z,78.44
2017-05-01T00:44:49.425Z,78.34
2017-05-01T00:44:53.850Z,78.25
2017-05-01T00:44:58.291Z,78.34
2017-05-01T00:45:02.733Z,78.34
2017-05-01T00:45:07.043Z,78.44
2017-05-01T00:45:11.347Z,78.34
2017-05-01T00:45:15.657Z,78.25
2017-05-01T00:45:20.007Z,78.34
2017-05-01T00:45:24.437Z,78.25
2017-05-01T00:45:28.864Z,78.34
2017-05-01T00:45:33.298Z,78.53
2017-05-01T00:45:37.739Z,78.53
2017-05-01T00:45:42.166Z,78.63
2017-05-01T00:45:46.592Z,78.63
2017-05-01T00:45:50.905Z,78.82
2017-05-01T00:45:55.229Z,78.82
2017-05-01T00:45:59.659Z,78.82
2017-05-01T00:46:04.337Z,78.82
2017-05-01T00:46:08.654Z,78.82
2017-05-01T00:46:12.970Z,78.63
2017-05-01T00:46:17.198Z,78.82
2017-05-01T00:46:21.626Z,78.72
2017-05-01T00:46:26.054Z,78.72
2017-05-01T00:46:30.495Z,78.72
2017-05-01T00:46:34.808Z,78.82
2017-05-01T00:46:39.232Z,78.82
2017-05-01T00:46:43.659Z,78.72
2017-05-01T00:46:47.980Z,78.72
2017-05-01T00:46:52.438Z,78.91
2017-05-01T00:46:56.866Z,78.72
2017-05-01T00:47:01.172Z,78.72
2017-05-01T00:47:05.483Z,78.82
2017-05-01T00:47:09.795Z,78.82
2017-05-01T00:47:14.102Z,78.82
2017-05-01T00:47:18.288Z,78.82
2017-05-01T00:47:22.716Z,78.82
2017-05-01T00:47:27.144Z,78.82
2017-05-01T00:47:31.567Z,78.91
2017-05-01T00:47:35.993Z,78.91
2017-05-01T00:47:40.305Z,78.91
2017-05-01T00:47:44.741Z,78.82
2017-05-01T00:47:49.167Z,78.91
2017-05-01T00:47:53.598Z,78.72
2017-05-01T00:47:58.045Z,78.82
2017-05-01T00:48:02.484Z,78.82
2017-05-01T00:48:06.906Z,78.63
2017-05-01T00:48:11.214Z,78.91
2017-05-01T00:48:15.182Z,78.63
2017-05-01T00:48:19.660Z,78.91
2017-05-01T00:48:24.089Z,78.91
2017-05-01T00:48:28.409Z,78.91
2017-05-01T00:48:32.844Z,79.01
2017-05-01T00:48:37.275Z,78.82
2017-05-01T00:48:41.610Z,78.82
2017-05-01T00:48:46.042Z,78.82
2017-05-01T00:48:50.356Z,79.01
2017-05-01T00:48:54.796Z,79.01
2017-05-01T00:48:59.230Z,78.63
2017-05-01T00:49:03.661Z,78.72
2017-05-01T00:49:08.105Z,78.82
2017-05-01T00:49:12.067Z,78.82
2017-05-01T00:49:16.389Z,78.91
2017-05-01T00:49:20.818Z,79.01
2017-05-01T00:49:25.247Z,78.91
2017-05-01T00:49:29.684Z,78.91
2017-05-01T00:49:34.111Z,78.82
2017-05-01T00:49:38.537Z,78.82
2017-05-01T00:49:42.733Z,78.82
2017-05-01T00:49:47.159Z,78.82
2017-05-01T00:49:51.629Z,78.91
2017-05-01T00:49:56.064Z,78.63
2017-05-01T00:50:00.494Z,78.72
2017-05-01T00:50:04.972Z,78.63
2017-05-01T00:50:09.164Z,78.63
2017-05-01T00:50:13.355Z,78.72
2017-05-01T00:50:17.780Z,78.72
2017-05-01T00:50:22.105Z,78.53
2017-05-01T00:50:26.413Z,78.63
2017-05-01T00:50:30.844Z,78.63
2017-05-01T00:50:35.268Z,78.44
2017-05-01T00:50:39.704Z,78.63
2017-05-01T00:50:43.936Z,78.82
2017-05-01T00:50:48.374Z,78.82
2017-05-01T00:50:52.800Z,78.72
2017-05-01T00:50:57.230Z,78.91
2017-05-01T00:51:01.812Z,78.53
2017-05-01T00:51:06.118Z,79.2
2017-05-01T00:51:10.559Z,79.2
2017-05-01T00:51:14.753Z,78.82
2017-05-01T00:51:19.186Z,79.11
2017-05-01T00:51:23.611Z,78.91
2017-05-01T00:51:27.929Z,79.11
2017-05-01T00:51:32.356Z,79.01
2017-05-01T00:51:36.790Z,79.11
2017-05-01T00:51:41.221Z,78.91
2017-05-01T00:51:45.532Z,79.11
2017-05-01T00:51:49.848Z,78.72
2017-05-01T00:51:54.271Z,78.72
2017-05-01T00:51:58.700Z,78.72
2017-05-01T00:52:03.041Z,79.11
2017-05-01T00:52:07.228Z,79.11
2017-05-01T00:52:11.665Z,79.01
2017-05-01T00:52:15.988Z,78.82
2017-05-01T00:52:20.455Z,78.82
2017-05-01T00:52:24.888Z,78.82
2017-05-01T00:52:29.525Z,78.82
2017-05-01T00:52:33.954Z,78.91
2017-05-01T00:52:38.426Z,78.91
2017-05-01T00:52:42.618Z,79.11
2017-05-01T00:52:47.048Z,79.11
2017-05-01T00:52:51.360Z,79.01
2017-05-01T00:52:55.811Z,79.11
2017-05-01T00:53:00.128Z,79.11
2017-05-01T00:53:04.767Z,79.11
2017-05-01T00:53:09.083Z,78.91
2017-05-01T00:53:13.536Z,79.01
2017-05-01T00:53:17.848Z,79.01
2017-05-01T00:53:22.281Z,79.11
2017-05-01T00:53:26.708Z,79.11
2017-05-01T00:53:31.138Z,79.2
2017-05-01T00:53:35.577Z,79.2
2017-05-01T00:53:39.888Z,79.2
2017-05-01T00:53:44.191Z,79.3
2017-05-01T00:53:48.630Z,79.2
2017-05-01T00:53:53.064Z,78.72
2017-05-01T00:53:57.389Z,78.63
2017-05-01T00:54:01.829Z,78.63
2017-05-01T00:54:06.310Z,78.63
2017-05-01T00:54:10.512Z,79.01
2017-05-01T00:54:14.951Z,79.01
2017-05-01T00:54:19.392Z,78.53
2017-05-01T00:54:23.822Z,78.91
2017-05-01T00:54:28.253Z,79.01
2017-05-01T00:54:32.685Z,78.82
2017-05-01T00:54:37.110Z,78.82
2017-05-01T00:54:41.545Z,79.01
2017-05-01T00:54:45.857Z,78.82
2017-05-01T00:54:50.047Z,78.82
2017-05-01T00:54:54.479Z,78.91
2017-05-01T00:54:58.969Z,78.82
2017-05-01T00:55:03.495Z,78.82
2017-05-01T00:55:07.926Z,78.91
2017-05-01T00:55:12.135Z,78.91
2017-05-01T00:55:16.455Z,78.82
2017-05-01T00:55:20.875Z,78.63
2017-05-01T00:55:25.177Z,78.82
2017-05-01T00:55:29.612Z,78.78
2017-05-01T00:55:34.051Z,78.63
2017-05-01T00:55:38.482Z,78.82
2017-05-01T00:55:42.790Z,78.78
2017-05-01T00:55:47.103Z,78.82
2017-05-01T00:55:51.562Z,78.91
2017-05-01T00:55:55.983Z,79.01
2017-05-01T00:56:00.313Z,79.01
2017-05-01T00:56:04.895Z,78.72
2017-05-01T00:56:09.216Z,78.82
2017-05-01T00:56:13.524Z,78.82
2017-05-01T00:56:17.952Z,78.72
2017-05-01T00:56:22.423Z,78.82
2017-05-01T00:56:26.855Z,78.78
2017-05-01T00:56:31.288Z,78.82
2017-05-01T00:56:35.717Z,78.88
2017-05-01T00:56:40.148Z,78.72